sensor_id;sensor_type;location;lat;lon;timestamp;pressure;altitude;pressure_sealevel;temperature;humidity
70921;BME280;58572;48.110;19.838;2022-09-09T00:00:53;97439.31;;;18.94;76.50
70921;BME280;58572;48.110;19.838;2022-09-09T00:03:26;97446.81;;;18.45;78.29
70921;BME280;58572;48.110;19.838;2022-09-09T00:05:59;97430.75;;;18.84;76.85
70921;BME280;58572;48.110;19.838;2022-09-09T00:08:37;97417.78;;;18.72;76.87
70921;BME280;58572;48.110;19.838;2022-09-09T00:11:12;97354.13;;;18.49;76.58
70921;BME280;58572;48.110;19.838;2022-09-09T00:13:44;97419.19;;;18.78;76.55
70921;BME280;58572;48.110;19.838;2022-09-09T00:16:16;97419.88;;;18.75;76.38
70921;BME280;58572;48.110;19.838;2022-09-09T00:18:53;97423.88;;;18.77;76.34
70921;BME280;58572;48.110;19.838;2022-09-09T00:21:24;97435.94;;;18.73;76.13
70921;BME280;58572;48.110;19.838;2022-09-09T00:23:54;97438.69;;;18.73;76.35
70921;BME280;58572;48.110;19.838;2022-09-09T00:26:25;97440.16;;;18.70;76.05
70921;BME280;58572;48.110;19.838;2022-09-09T00:29:00;97451.06;;;18.67;75.99
70921;BME280;58572;48.110;19.838;2022-09-09T00:31:31;97449.91;;;18.68;76.14
70921;BME280;58572;48.110;19.838;2022-09-09T00:34:04;97440.84;;;18.67;76.09
70921;BME280;58572;48.110;19.838;2022-09-09T00:36:37;97450.59;;;18.40;77.12
70921;BME280;58572;48.110;19.838;2022-09-09T00:39:05;97443.94;;;17.80;79.29
70921;BME280;58572;48.110;19.838;2022-09-09T00:41:46;97389.75;;;16.52;82.30
70921;BME280;58572;48.110;19.838;2022-09-09T00:44:25;97335.69;;;17.52;77.41
70921;BME280;58572;48.110;19.838;2022-09-09T00:47:18;97440.75;;;18.39;76.58
70921;BME280;58572;48.110;19.838;2022-09-09T00:49:59;97436.84;;;18.40;76.13
70921;BME280;58572;48.110;19.838;2022-09-09T00:52:31;97444.75;;;18.42;76.29
70921;BME280;58572;48.110;19.838;2022-09-09T00:55:07;97447.84;;;18.40;76.26
70921;BME280;58572;48.110;19.838;2022-09-09T00:57:38;97441.44;;;18.36;76.02
70921;BME280;58572;48.110;19.838;2022-09-09T01:00:24;97444.31;;;18.40;75.98
70921;BME280;58572;48.110;19.838;2022-09-09T01:03:14;97439.81;;;18.35;76.28
70921;BME280;58572;48.110;19.838;2022-09-09T01:05:54;97413.34;;;18.18;76.15
70921;BME280;58572;48.110;19.838;2022-09-09T01:08:39;97441.44;;;18.36;76.17
70921;BME280;58572;48.110;19.838;2022-09-09T01:11:17;97443.28;;;18.32;75.97
70921;BME280;58572;48.110;19.838;2022-09-09T01:13:50;97343.59;;;17.66;76.34
70921;BME280;58572;48.110;19.838;2022-09-09T01:16:20;97444.41;;;18.31;76.06
70921;BME280;58572;48.110;19.838;2022-09-09T01:18:48;97439.59;;;18.28;76.13
70921;BME280;58572;48.110;19.838;2022-09-09T01:21:23;97439.50;;;18.25;76.10
70921;BME280;58572;48.110;19.838;2022-09-09T01:24:08;97436.63;;;18.33;76.27
70921;BME280;58572;48.110;19.838;2022-09-09T01:26:44;97393.19;;;17.90;76.05
70921;BME280;58572;48.110;19.838;2022-09-09T01:29:12;97438.22;;;18.34;76.05
70921;BME280;58572;48.110;19.838;2022-09-09T01:31:42;97444.66;;;18.26;75.84
70921;BME280;58572;48.110;19.838;2022-09-09T01:34:11;97385.38;;;17.80;76.43
70921;BME280;58572;48.110;19.838;2022-09-09T01:36:42;97448.66;;;18.16;76.34
70921;BME280;58572;48.110;19.838;2022-09-09T01:39:11;97464.59;;;18.23;76.04
70921;BME280;58572;48.110;19.838;2022-09-09T01:41:39;97464.81;;;18.18;76.18
70921;BME280;58572;48.110;19.838;2022-09-09T01:44:08;97461.50;;;18.12;76.43
70921;BME280;58572;48.110;19.838;2022-09-09T01:46:36;97472.06;;;18.23;76.21
70921;BME280;58572;48.110;19.838;2022-09-09T01:49:05;97431.91;;;17.85;76.39
70921;BME280;58572;48.110;19.838;2022-09-09T01:51:33;97474.00;;;18.10;76.29
70921;BME280;58572;48.110;19.838;2022-09-09T01:54:02;97476.97;;;18.05;76.44
70921;BME280;58572;48.110;19.838;2022-09-09T01:56:38;97396.50;;;17.50;76.29
70921;BME280;58572;48.110;19.838;2022-09-09T01:59:23;97482.94;;;18.07;76.26
70921;BME280;58572;48.110;19.838;2022-09-09T02:01:59;97471.94;;;18.07;75.98
70921;BME280;58572;48.110;19.838;2022-09-09T02:04:37;97478.00;;;18.00;76.20
70921;BME280;58572;48.110;19.838;2022-09-09T02:07:15;97478.34;;;17.99;76.72
70921;BME280;58572;48.110;19.838;2022-09-09T02:09:47;97469.28;;;17.98;76.34
70921;BME280;58572;48.110;19.838;2022-09-09T02:12:18;97413.16;;;17.66;76.24
70921;BME280;58572;48.110;19.838;2022-09-09T02:14:52;97467.66;;;17.97;76.32
70921;BME280;58572;48.110;19.838;2022-09-09T02:17:25;97466.88;;;17.97;76.45
70921;BME280;58572;48.110;19.838;2022-09-09T02:19:58;97471.91;;;17.95;76.44
70921;BME280;58572;48.110;19.838;2022-09-09T02:22:30;97463.66;;;17.95;76.86
70921;BME280;58572;48.110;19.838;2022-09-09T02:25:00;97470.66;;;17.92;76.72
70921;BME280;58572;48.110;19.838;2022-09-09T02:27:30;97477.53;;;17.98;76.50
70921;BME280;58572;48.110;19.838;2022-09-09T02:30:00;97430.06;;;17.56;76.45
70921;BME280;58572;48.110;19.838;2022-09-09T02:32:29;97479.25;;;17.91;76.55
70921;BME280;58572;48.110;19.838;2022-09-09T02:34:59;97479.69;;;17.93;76.71
70921;BME280;58572;48.110;19.838;2022-09-09T02:37:31;97475.22;;;17.88;76.99
70921;BME280;58572;48.110;19.838;2022-09-09T02:40:02;97488.50;;;17.86;76.93
70921;BME280;58572;48.110;19.838;2022-09-09T02:42:29;97423.41;;;17.45;76.73
70921;BME280;58572;48.110;19.838;2022-09-09T02:44:56;97482.78;;;17.91;76.88
70921;BME280;58572;48.110;19.838;2022-09-09T02:47:31;97500.78;;;17.89;76.48
70921;BME280;58572;48.110;19.838;2022-09-09T02:50:11;97510.50;;;17.86;77.38
70921;BME280;58572;48.110;19.838;2022-09-09T02:52:47;97514.28;;;17.81;76.66
70921;BME280;58572;48.110;19.838;2022-09-09T02:55:23;97509.13;;;17.80;77.10
70921;BME280;58572;48.110;19.838;2022-09-09T02:57:52;97499.59;;;17.77;76.89
70921;BME280;58572;48.110;19.838;2022-09-09T03:00:26;97503.28;;;17.81;76.98
70921;BME280;58572;48.110;19.838;2022-09-09T03:02:55;97395.50;;;17.22;76.76
70921;BME280;58572;48.110;19.838;2022-09-09T03:05:22;97489.88;;;17.80;76.97
70921;BME280;58572;48.110;19.838;2022-09-09T03:07:51;97485.84;;;17.77;77.00
70921;BME280;58572;48.110;19.838;2022-09-09T03:10:18;97489.06;;;17.79;76.80
70921;BME280;58572;48.110;19.838;2022-09-09T03:12:45;97488.03;;;17.84;76.73
70921;BME280;58572;48.110;19.838;2022-09-09T03:15:12;97488.81;;;17.72;77.17
70921;BME280;58572;48.110;19.838;2022-09-09T03:17:40;97492.72;;;17.71;77.03
70921;BME280;58572;48.110;19.838;2022-09-09T03:20:09;97490.75;;;17.72;77.30
70921;BME280;58572;48.110;19.838;2022-09-09T03:22:37;97492.25;;;17.69;77.05
70921;BME280;58572;48.110;19.838;2022-09-09T03:25:04;97491.75;;;17.67;76.95
70921;BME280;58572;48.110;19.838;2022-09-09T03:27:32;97486.06;;;17.72;77.17
70921;BME280;58572;48.110;19.838;2022-09-09T03:29:59;97491.91;;;17.71;77.53
70921;BME280;58572;48.110;19.838;2022-09-09T03:32:29;97457.97;;;17.46;77.07
70921;BME280;58572;48.110;19.838;2022-09-09T03:34:57;97493.69;;;17.67;77.08
70921;BME280;58572;48.110;19.838;2022-09-09T03:37:26;97456.72;;;17.43;76.95
70921;BME280;58572;48.110;19.838;2022-09-09T03:39:53;97494.66;;;17.71;77.38
70921;BME280;58572;48.110;19.838;2022-09-09T03:42:21;97485.28;;;17.63;76.94
70921;BME280;58572;48.110;19.838;2022-09-09T03:44:48;97495.03;;;17.61;77.16
70921;BME280;58572;48.110;19.838;2022-09-09T03:47:17;97489.88;;;17.59;77.37
70921;BME280;58572;48.110;19.838;2022-09-09T03:49:45;97452.88;;;17.23;77.07
70921;BME280;58572;48.110;19.838;2022-09-09T03:52:12;97501.31;;;17.61;77.00
70921;BME280;58572;48.110;19.838;2022-09-09T03:54:40;97505.69;;;17.62;77.16
70921;BME280;58572;48.110;19.838;2022-09-09T03:57:08;97502.94;;;17.62;76.97
70921;BME280;58572;48.110;19.838;2022-09-09T03:59:35;97510.25;;;17.58;77.32
70921;BME280;58572;48.110;19.838;2022-09-09T04:02:04;97417.53;;;17.01;77.54
70921;BME280;58572;48.110;19.838;2022-09-09T04:04:30;97512.75;;;17.30;78.60
70921;BME280;58572;48.110;19.838;2022-09-09T04:06:57;97507.03;;;17.56;78.03
70921;BME280;58572;48.110;19.838;2022-09-09T04:09:25;97516.53;;;17.59;77.28
70921;BME280;58572;48.110;19.838;2022-09-09T04:11:53;97517.81;;;17.61;77.07
70921;BME280;58572;48.110;19.838;2022-09-09T04:14:20;97475.78;;;17.28;77.21
70921;BME280;58572;48.110;19.838;2022-09-09T04:16:47;97457.44;;;17.19;77.11
70921;BME280;58572;48.110;19.838;2022-09-09T04:19:15;97506.09;;;17.52;76.93
70921;BME280;58572;48.110;19.838;2022-09-09T04:21:42;97516.28;;;17.51;77.40
70921;BME280;58572;48.110;19.838;2022-09-09T04:24:09;97510.13;;;17.54;77.26
70921;BME280;58572;48.110;19.838;2022-09-09T04:26:37;97506.78;;;17.49;77.74
70921;BME280;58572;48.110;19.838;2022-09-09T04:29:05;97472.75;;;17.20;77.44
70921;BME280;58572;48.110;19.838;2022-09-09T04:31:33;97516.09;;;17.56;77.85
70921;BME280;58572;48.110;19.838;2022-09-09T04:34:00;97520.53;;;17.49;77.65
70921;BME280;58572;48.110;19.838;2022-09-09T04:36:31;97518.09;;;17.47;77.19
70921;BME280;58572;48.110;19.838;2022-09-09T04:38:58;97517.78;;;17.49;77.20
70921;BME280;58572;48.110;19.838;2022-09-09T04:41:27;97516.63;;;17.50;77.19
70921;BME280;58572;48.110;19.838;2022-09-09T04:43:54;97530.38;;;17.50;77.75
70921;BME280;58572;48.110;19.838;2022-09-09T04:46:23;97524.75;;;17.46;77.38
70921;BME280;58572;48.110;19.838;2022-09-09T04:48:50;97475.97;;;17.22;77.81
70921;BME280;58572;48.110;19.838;2022-09-09T04:51:18;97510.00;;;17.51;77.29
70921;BME280;58572;48.110;19.838;2022-09-09T04:53:45;97518.69;;;17.53;77.47
70921;BME280;58572;48.110;19.838;2022-09-09T04:56:15;97518.56;;;17.49;77.31
70921;BME280;58572;48.110;19.838;2022-09-09T04:58:43;97519.84;;;17.52;77.79
70921;BME280;58572;48.110;19.838;2022-09-09T05:01:13;97514.69;;;17.50;77.12
70921;BME280;58572;48.110;19.838;2022-09-09T05:03:41;97523.94;;;17.46;77.50
70921;BME280;58572;48.110;19.838;2022-09-09T05:06:12;97516.84;;;17.45;77.54
70921;BME280;58572;48.110;19.838;2022-09-09T05:08:42;97516.84;;;17.45;77.22
70921;BME280;58572;48.110;19.838;2022-09-09T05:11:17;97518.03;;;17.56;77.47
70921;BME280;58572;48.110;19.838;2022-09-09T05:13:45;97511.13;;;17.50;77.80
70921;BME280;58572;48.110;19.838;2022-09-09T05:16:13;97524.75;;;17.46;77.59
70921;BME280;58572;48.110;19.838;2022-09-09T05:18:42;97426.56;;;16.81;77.53
70921;BME280;58572;48.110;19.838;2022-09-09T05:21:10;97521.41;;;17.41;77.68
70921;BME280;58572;48.110;19.838;2022-09-09T05:23:37;97521.88;;;17.43;77.86
70921;BME280;58572;48.110;19.838;2022-09-09T05:26:04;97525.41;;;17.43;77.65
70921;BME280;58572;48.110;19.838;2022-09-09T05:28:34;97525.41;;;17.43;77.83
70921;BME280;58572;48.110;19.838;2022-09-09T05:31:04;97522.34;;;17.45;77.30
70921;BME280;58572;48.110;19.838;2022-09-09T05:33:35;97534.81;;;17.42;77.64
70921;BME280;58572;48.110;19.838;2022-09-09T05:36:05;97543.66;;;17.48;77.28
70921;BME280;58572;48.110;19.838;2022-09-09T05:38:34;97540.78;;;17.44;77.59
70921;BME280;58572;48.110;19.838;2022-09-09T05:41:02;97538.16;;;17.48;78.09
70921;BME280;58572;48.110;19.838;2022-09-09T05:43:29;97530.13;;;17.43;77.56
70921;BME280;58572;48.110;19.838;2022-09-09T05:46:02;97519.66;;;17.36;77.92
70921;BME280;58572;48.110;19.838;2022-09-09T05:48:31;97488.44;;;17.20;78.27
70921;BME280;58572;48.110;19.838;2022-09-09T05:50:59;97481.69;;;17.17;77.88
70921;BME280;58572;48.110;19.838;2022-09-09T05:53:29;97533.78;;;17.47;77.66
70921;BME280;58572;48.110;19.838;2022-09-09T05:56:00;97535.75;;;17.46;78.30
70921;BME280;58572;48.110;19.838;2022-09-09T05:58:29;97528.44;;;17.09;81.46
70921;BME280;58572;48.110;19.838;2022-09-09T06:01:03;97541.38;;;17.08;80.06
70921;BME280;58572;48.110;19.838;2022-09-09T06:03:32;97542.13;;;17.17;78.96
70921;BME280;58572;48.110;19.838;2022-09-09T06:06:01;97542.72;;;17.23;79.70
70921;BME280;58572;48.110;19.838;2022-09-09T06:08:32;97545.53;;;17.35;78.86
70921;BME280;58572;48.110;19.838;2022-09-09T06:11:04;97503.66;;;17.17;78.26
70921;BME280;58572;48.110;19.838;2022-09-09T06:13:31;97499.16;;;17.13;78.25
70921;BME280;58572;48.110;19.838;2022-09-09T06:15:59;97541.25;;;17.26;78.91
70921;BME280;58572;48.110;19.838;2022-09-09T06:18:26;97541.78;;;17.19;79.77
70921;BME280;58572;48.110;19.838;2022-09-09T06:20:56;97555.25;;;17.33;78.25
70921;BME280;58572;48.110;19.838;2022-09-09T06:23:24;97554.38;;;17.41;78.17
70921;BME280;58572;48.110;19.838;2022-09-09T06:26:01;97560.69;;;17.41;78.24
70921;BME280;58572;48.110;19.838;2022-09-09T06:28:28;97562.03;;;17.35;78.10
70921;BME280;58572;48.110;19.838;2022-09-09T06:30:58;97498.78;;;17.02;78.20
70921;BME280;58572;48.110;19.838;2022-09-09T06:33:25;97556.66;;;17.39;78.01
70921;BME280;58572;48.110;19.838;2022-09-09T06:35:53;97506.53;;;17.00;78.15
70921;BME280;58572;48.110;19.838;2022-09-09T06:38:22;97560.53;;;17.38;78.04
70921;BME280;58572;48.110;19.838;2022-09-09T06:40:55;97559.88;;;17.41;77.98
70921;BME280;58572;48.110;19.838;2022-09-09T06:43:24;97519.41;;;17.08;77.68
70921;BME280;58572;48.110;19.838;2022-09-09T06:45:55;97557.59;;;17.43;78.00
70921;BME280;58572;48.110;19.838;2022-09-09T06:48:23;97538.97;;;17.28;77.75
70921;BME280;58572;48.110;19.838;2022-09-09T06:50:51;97553.72;;;17.44;77.65
70921;BME280;58572;48.110;19.838;2022-09-09T06:53:19;97562.41;;;17.46;77.41
70921;BME280;58572;48.110;19.838;2022-09-09T06:55:46;97558.00;;;17.53;77.84
70921;BME280;58572;48.110;19.838;2022-09-09T06:58:15;97568.66;;;17.55;77.66
70921;BME280;58572;48.110;19.838;2022-09-09T07:00:42;97570.13;;;17.52;77.73
70921;BME280;58572;48.110;19.838;2022-09-09T07:03:10;97570.47;;;17.51;77.27
70921;BME280;58572;48.110;19.838;2022-09-09T07:05:37;97575.97;;;17.51;77.27
70921;BME280;58572;48.110;19.838;2022-09-09T07:08:04;97571.88;;;17.57;77.81
70921;BME280;58572;48.110;19.838;2022-09-09T07:10:31;97575.06;;;17.59;77.81
70921;BME280;58572;48.110;19.838;2022-09-09T07:12:59;97577.50;;;17.61;77.45
70921;BME280;58572;48.110;19.838;2022-09-09T07:15:29;97582.47;;;17.67;77.10
70921;BME280;58572;48.110;19.838;2022-09-09T07:18:01;97566.84;;;17.17;79.79
70921;BME280;58572;48.110;19.838;2022-09-09T07:20:28;97574.59;;;17.57;77.90
70921;BME280;58572;48.110;19.838;2022-09-09T07:22:55;97578.75;;;17.63;77.47
70921;BME280;58572;48.110;19.838;2022-09-09T07:25:24;97578.75;;;17.63;77.36
70921;BME280;58572;48.110;19.838;2022-09-09T07:27:52;97578.06;;;17.75;78.98
70921;BME280;58572;48.110;19.838;2022-09-09T07:30:20;97577.25;;;17.74;79.65
70921;BME280;58572;48.110;19.838;2022-09-09T07:32:50;97576.34;;;17.70;80.35
70921;BME280;58572;48.110;19.838;2022-09-09T07:35:18;97583.44;;;17.71;80.26
70921;BME280;58572;48.110;19.838;2022-09-09T07:37:45;97590.72;;;17.67;80.86
70921;BME280;58572;48.110;19.838;2022-09-09T07:40:13;97587.66;;;17.69;80.04
70921;BME280;58572;48.110;19.838;2022-09-09T07:42:40;97593.97;;;17.69;78.46
70921;BME280;58572;48.110;19.838;2022-09-09T07:45:07;97594.91;;;17.73;78.84
70921;BME280;58572;48.110;19.838;2022-09-09T07:47:35;97603.91;;;17.53;81.43
70921;BME280;58572;48.110;19.838;2022-09-09T07:50:04;97525.16;;;17.15;79.05
70921;BME280;58572;48.110;19.838;2022-09-09T07:52:33;97506.81;;;17.07;78.11
70921;BME280;58572;48.110;19.838;2022-09-09T07:55:01;97600.91;;;17.67;78.25
70921;BME280;58572;48.110;19.838;2022-09-09T07:57:30;97606.56;;;17.70;78.04
70921;BME280;58572;48.110;19.838;2022-09-09T07:59:57;97599.72;;;17.76;78.08
70921;BME280;58572;48.110;19.838;2022-09-09T08:02:24;97568.84;;;17.50;79.25
70921;BME280;58572;48.110;19.838;2022-09-09T08:04:54;97528.78;;;17.28;77.65
70921;BME280;58572;48.110;19.838;2022-09-09T08:07:23;97626.00;;;17.86;77.99
70921;BME280;58572;48.110;19.838;2022-09-09T08:09:50;97621.75;;;17.47;83.51
70921;BME280;58572;48.110;19.838;2022-09-09T08:12:17;97620.66;;;17.90;79.47
70921;BME280;58572;48.110;19.838;2022-09-09T08:14:44;97613.13;;;17.99;79.56
70921;BME280;58572;48.110;19.838;2022-09-09T08:17:11;97619.47;;;18.11;79.06
70921;BME280;58572;48.110;19.838;2022-09-09T08:19:38;97629.78;;;18.14;79.09
70921;BME280;58572;48.110;19.838;2022-09-09T08:22:05;97625.13;;;18.27;77.96
70921;BME280;58572;48.110;19.838;2022-09-09T08:24:34;97624.28;;;18.60;78.01
70921;BME280;58572;48.110;19.838;2022-09-09T08:27:01;97610.34;;;18.77;76.61
70921;BME280;58572;48.110;19.838;2022-09-09T08:29:28;97607.75;;;18.47;79.17
70921;BME280;58572;48.110;19.838;2022-09-09T08:31:57;97608.91;;;18.59;78.01
70921;BME280;58572;48.110;19.838;2022-09-09T08:34:25;97573.38;;;18.66;76.25
70921;BME280;58572;48.110;19.838;2022-09-09T08:36:53;97613.34;;;18.96;75.69
70921;BME280;58572;48.110;19.838;2022-09-09T08:39:21;97608.59;;;18.72;76.01
70921;BME280;58572;48.110;19.838;2022-09-09T08:42:09;97614.69;;;18.66;77.78
70921;BME280;58572;48.110;19.838;2022-09-09T08:44:49;97608.09;;;18.58;78.23
70921;BME280;58572;48.110;19.838;2022-09-09T08:47:25;97614.25;;;18.76;77.75
70921;BME280;58572;48.110;19.838;2022-09-09T08:50:05;97588.56;;;18.84;77.46
70921;BME280;58572;48.110;19.838;2022-09-09T08:52:39;97596.94;;;18.88;77.90
70921;BME280;58572;48.110;19.838;2022-09-09T08:55:21;97598.88;;;18.99;78.12
70921;BME280;58572;48.110;19.838;2022-09-09T08:57:52;97496.72;;;18.68;76.61
70921;BME280;58572;48.110;19.838;2022-09-09T09:00:21;97593.19;;;19.44;76.28
70921;BME280;58572;48.110;19.838;2022-09-09T09:02:57;97541.34;;;19.50;75.01
70921;BME280;58572;48.110;19.838;2022-09-09T09:05:35;97552.50;;;19.01;76.88
70921;BME280;58572;48.110;19.838;2022-09-09T09:08:10;97590.41;;;19.44;76.22
70921;BME280;58572;48.110;19.838;2022-09-09T09:10:45;97585.94;;;19.40;81.73
70921;BME280;58572;48.110;19.838;2022-09-09T09:13:17;97579.31;;;19.29;79.33
70921;BME280;58572;48.110;19.838;2022-09-09T09:15:49;97580.41;;;19.00;78.73
70921;BME280;58572;48.110;19.838;2022-09-09T09:18:19;97591.25;;;18.60;83.08
70921;BME280;58572;48.110;19.838;2022-09-09T09:20:51;97583.53;;;18.53;85.39
70921;BME280;58572;48.110;19.838;2022-09-09T09:23:22;97581.34;;;18.34;85.21
70921;BME280;58572;48.110;19.838;2022-09-09T09:25:52;97581.50;;;18.62;80.89
70921;BME280;58572;48.110;19.838;2022-09-09T09:28:27;97518.63;;;17.82;86.97
70921;BME280;58572;48.110;19.838;2022-09-09T09:30:58;97552.41;;;18.16;86.25
70921;BME280;58572;48.110;19.838;2022-09-09T09:33:32;97570.91;;;18.28;87.14
70921;BME280;58572;48.110;19.838;2022-09-09T09:36:01;97603.53;;;18.62;88.78
70921;BME280;58572;48.110;19.838;2022-09-09T09:38:29;97593.38;;;18.99;81.77
70921;BME280;58572;48.110;19.838;2022-09-09T09:40:57;97602.06;;;19.26;83.79
70921;BME280;58572;48.110;19.838;2022-09-09T09:43:29;97599.22;;;19.10;86.51
70921;BME280;58572;48.110;19.838;2022-09-09T09:45:57;97613.81;;;18.86;88.90
70921;BME280;58572;48.110;19.838;2022-09-09T09:48:24;97605.63;;;19.26;81.73
70921;BME280;58572;48.110;19.838;2022-09-09T09:50:54;97601.97;;;19.74;77.57
70921;BME280;58572;48.110;19.838;2022-09-09T09:53:24;97604.25;;;20.40;82.56
70921;BME280;58572;48.110;19.838;2022-09-09T09:55:55;97589.47;;;20.64;74.12
70921;BME280;58572;48.110;19.838;2022-09-09T09:58:23;97596.06;;;21.23;71.03
70921;BME280;58572;48.110;19.838;2022-09-09T10:00:53;97602.84;;;21.10;72.29
70921;BME280;58572;48.110;19.838;2022-09-09T10:03:25;97596.41;;;21.06;72.41
70921;BME280;58572;48.110;19.838;2022-09-09T10:05:53;97573.59;;;20.46;75.12
70921;BME280;58572;48.110;19.838;2022-09-09T10:08:21;97586.25;;;20.47;76.40
70921;BME280;58572;48.110;19.838;2022-09-09T10:11:12;97583.56;;;21.29;74.72
70921;BME280;58572;48.110;19.838;2022-09-09T10:13:50;97589.44;;;22.01;71.59
70921;BME280;58572;48.110;19.838;2022-09-09T10:16:34;97590.84;;;21.37;73.10
70921;BME280;58572;48.110;19.838;2022-09-09T10:19:09;97593.88;;;21.67;69.96
70921;BME280;58572;48.110;19.838;2022-09-09T10:21:53;97589.47;;;21.47;70.69
70921;BME280;58572;48.110;19.838;2022-09-09T10:27:28;97584.00;;;21.31;70.47
70921;BME280;58572;48.110;19.838;2022-09-09T10:30:12;97580.38;;;21.46;69.57
70921;BME280;58572;48.110;19.838;2022-09-09T10:32:48;97580.81;;;21.48;68.54
70921;BME280;58572;48.110;19.838;2022-09-09T10:35:40;97578.34;;;21.62;68.83
70921;BME280;58572;48.110;19.838;2022-09-09T10:38:13;97574.66;;;21.93;67.61
70921;BME280;58572;48.110;19.838;2022-09-09T10:41:00;97577.91;;;21.41;67.02
70921;BME280;58572;48.110;19.838;2022-09-09T10:43:45;97575.97;;;21.80;66.27
70921;BME280;58572;48.110;19.838;2022-09-09T10:46:14;97577.56;;;21.81;66.75
70921;BME280;58572;48.110;19.838;2022-09-09T10:48:55;97580.22;;;22.13;66.01
70921;BME280;58572;48.110;19.838;2022-09-09T10:51:35;97575.25;;;22.22;66.24
70921;BME280;58572;48.110;19.838;2022-09-09T10:54:25;97579.19;;;22.67;66.21
70921;BME280;58572;48.110;19.838;2022-09-09T10:56:59;97412.53;;;21.12;67.22
70921;BME280;58572;48.110;19.838;2022-09-09T10:59:34;97584.63;;;21.79;68.53
70921;BME280;58572;48.110;19.838;2022-09-09T11:02:11;97500.66;;;21.71;68.11
70921;BME280;58572;48.110;19.838;2022-09-09T11:04:43;97502.78;;;21.58;68.11
70921;BME280;58572;48.110;19.838;2022-09-09T11:07:16;97569.63;;;22.18;67.78
70921;BME280;58572;48.110;19.838;2022-09-09T11:09:46;97578.19;;;22.98;65.11
70921;BME280;58572;48.110;19.838;2022-09-09T11:12:19;97548.34;;;22.22;65.30
70921;BME280;58572;48.110;19.838;2022-09-09T11:14:50;97542.75;;;22.19;64.80
70921;BME280;58572;48.110;19.838;2022-09-09T11:17:22;97588.19;;;21.60;65.93
70921;BME280;58572;48.110;19.838;2022-09-09T11:19:53;97554.91;;;21.56;68.25
70921;BME280;58572;48.110;19.838;2022-09-09T11:22:27;97582.56;;;21.21;74.91
70921;BME280;58572;48.110;19.838;2022-09-09T11:25:00;97591.88;;;20.97;68.37
70921;BME280;58572;48.110;19.838;2022-09-09T11:27:35;97591.88;;;20.97;74.45
70921;BME280;58572;48.110;19.838;2022-09-09T11:30:16;97588.66;;;20.80;77.20
70921;BME280;58572;48.110;19.838;2022-09-09T11:35:54;97583.75;;;22.78;69.12
70921;BME280;58572;48.110;19.838;2022-09-09T11:38:26;97583.69;;;22.75;63.75
70921;BME280;58572;48.110;19.838;2022-09-09T11:40:56;97590.72;;;22.46;64.29
70921;BME280;58572;48.110;19.838;2022-09-09T11:43:28;97587.59;;;22.05;65.75
70921;BME280;58572;48.110;19.838;2022-09-09T11:45:58;97576.72;;;22.16;64.42
70921;BME280;58572;48.110;19.838;2022-09-09T11:48:32;97573.97;;;22.39;64.22
70921;BME280;58572;48.110;19.838;2022-09-09T11:51:06;97571.03;;;22.97;63.33
70921;BME280;58572;48.110;19.838;2022-09-09T11:53:35;97560.16;;;23.11;62.86
70921;BME280;58572;48.110;19.838;2022-09-09T11:56:11;97577.22;;;23.39;59.06
70921;BME280;58572;48.110;19.838;2022-09-09T11:58:42;97582.41;;;23.14;60.08
70921;BME280;58572;48.110;19.838;2022-09-09T12:01:16;97582.13;;;24.09;59.72
70921;BME280;58572;48.110;19.838;2022-09-09T12:04:11;97581.63;;;23.70;59.74
70921;BME280;58572;48.110;19.838;2022-09-09T12:06:56;97503.94;;;23.14;60.83
70921;BME280;58572;48.110;19.838;2022-09-09T12:09:50;97570.47;;;23.67;60.89
70921;BME280;58572;48.110;19.838;2022-09-09T12:12:27;97570.22;;;23.79;61.44
70921;BME280;58572;48.110;19.838;2022-09-09T12:14:57;97570.78;;;23.92;60.63
70921;BME280;58572;48.110;19.838;2022-09-09T12:17:27;97573.91;;;23.30;61.42
70921;BME280;58572;48.110;19.838;2022-09-09T12:20:06;97573.38;;;22.95;62.63
70921;BME280;58572;48.110;19.838;2022-09-09T12:22:43;97571.31;;;22.69;62.30
70921;BME280;58572;48.110;19.838;2022-09-09T12:25:20;97568.22;;;22.74;62.08
70921;BME280;58572;48.110;19.838;2022-09-09T12:28:00;97561.75;;;23.38;61.19
70921;BME280;58572;48.110;19.838;2022-09-09T12:30:34;97555.19;;;23.23;61.40
70921;BME280;58572;48.110;19.838;2022-09-09T12:33:08;97555.25;;;23.01;61.56
70921;BME280;58572;48.110;19.838;2022-09-09T12:35:37;97468.50;;;22.51;61.49
70921;BME280;58572;48.110;19.838;2022-09-09T12:38:12;97536.78;;;22.62;62.50
70921;BME280;58572;48.110;19.838;2022-09-09T12:40:41;97552.28;;;22.67;62.95
70921;BME280;58572;48.110;19.838;2022-09-09T12:43:22;97549.25;;;22.76;62.86
70921;BME280;58572;48.110;19.838;2022-09-09T12:45:50;97556.34;;;22.73;62.93
70921;BME280;58572;48.110;19.838;2022-09-09T12:48:28;97548.53;;;22.56;63.47
70921;BME280;58572;48.110;19.838;2022-09-09T12:50:57;97552.84;;;22.53;63.25
70921;BME280;58572;48.110;19.838;2022-09-09T12:53:28;97510.00;;;22.24;63.76
70921;BME280;58572;48.110;19.838;2022-09-09T12:55:58;97535.66;;;22.21;66.77
70921;BME280;58572;48.110;19.838;2022-09-09T12:58:27;97538.44;;;21.44;70.47
70921;BME280;58572;48.110;19.838;2022-09-09T13:00:58;97534.59;;;21.68;73.52
70921;BME280;58572;48.110;19.838;2022-09-09T13:03:27;97534.31;;;21.54;75.45
70921;BME280;58572;48.110;19.838;2022-09-09T13:05:58;97532.34;;;21.74;70.82
70921;BME280;58572;48.110;19.838;2022-09-09T13:08:28;97506.69;;;21.96;69.61
70921;BME280;58572;48.110;19.838;2022-09-09T13:10:57;97519.88;;;21.83;71.31
70921;BME280;58572;48.110;19.838;2022-09-09T13:13:39;97518.81;;;22.07;67.99
70921;BME280;58572;48.110;19.838;2022-09-09T13:16:18;97513.75;;;22.81;68.27
70921;BME280;58572;48.110;19.838;2022-09-09T13:18:46;97511.66;;;22.52;65.38